Terminal Aerodrome Forecast
Issued by NWS

Home | Current Version | Previous Version | Graphics & Text | Print | Product List | Glossary On
Versions: 1 2 3 4 5 6 7 8 9 10 11 12 13 14 15 16 17 18 19
000
FTUS43 KGRB 212329
TAFRHI
TAF
KRHI 212329Z 2200/2224 27004KT P6SM SCT070
     FM220200 VRB02KT P6SM SKC
     FM220700 VRB03KT 3SM BR SKC
      TEMPO 2208/2212 1/2SM FG BKN002
     FM221400 22010KT P6SM SCT030
     FM221800 21014G20KT P6SM SCT045=

USA.gov is the U.S. government's official web portal to all federal, state and local government web resources and services.